Austin, Indiana
Current Conditions -  °F | °C
As of 2:50 PM on Sunday 23 Nov 2014 (Local Time) from KBAK Reporting Station
Light Rain Light Rain  
Wind Chill: 52°   Ceiling: 2000
Heat Index: 52°   Visibility: 7mi
Dew Point: 50°   Wind: 9mph
Humidity: 94%   Direction: 130°SE
Pressure: 29.62"   Gusts: NA
Location:  38.76°N, 85.81°W
Report Text: KBAK 231950Z 13008KT 7SM -RA BKN020 OVC028 11/10 A2962
Loading
Personal Weather Stations






























Interactive Weather Map New forecast layout! Learn more

10-Day Weather Forecast

Advertisements
Track Severe Weather on mobile